This is the latest recevied weather packets stored in our database for station/object OK2PAT-12. If no packets are shown the sender has not sent any weather packets the latest 10 day(s).
| Time | Temp. | Humidity | Pressure | Rain* | Wind** | Luminosity | Snow |
|---|---|---|---|---|---|---|---|
| 1788060162 | 15° C | 96% | 1018.3 hPa | - | - | - | - |
| 1788059562 | 15° C | 96% | 1018.3 hPa | - | - | - | - |
| 1788033152 | 18.89° C | - | 1018.3 hPa | - | - | - | - |
| 1788032552 | 18.89° C | 81% | 1018.3 hPa | - | - | - | - |
| 1788030750 | 18.89° C | 80% | 1018.2 hPa | - | - | - | - |
| 1788027747 | 20.56° C | 75% | 1017.7 hPa | - | - | - | - |
| 1788027147 | 20.56° C | 74% | 1017.6 hPa | - | - | - | - |
| 1788024747 | 21.67° C | 72% | 1017.4 hPa | - | - | - | - |
| 1788024147 | 21.67° C | 72% | 1017.4 hPa | - | - | - | - |
| 1788023547 | 22.22° C | 71% | 1017.3 hPa | - | - | - | - |
| 1788022947 | 22.78° C | 70% | 1017.3 hPa | - | - | - | - |
| 1788021147 | 23.33° C | 69% | 1017.3 hPa | - | - | - | - |
| 1788020547 | 23.89° C | 69% | 1017.3 hPa | - | - | - | - |
| 1788019947 | 23.89° C | 69% | 1017.2 hPa | - | - | - | - |
| 1788019350 | 23.33° C | 70% | 1017.3 hPa | - | - | - | - |
| 1788018747 | 23.33° C | 71% | 1017.3 hPa | - | - | - | - |
| 1788017547 | 23.89° C | 71% | 1017.4 hPa | - | - | - | - |
| 1788016947 | 23.89° C | 71% | 1017.4 hPa | - | - | - | - |
| 1788016347 | 23.89° C | 71% | 1017.4 hPa | - | - | - | - |
| 1788010344 | 23.33° C | 80% | 1017.5 hPa | - | - | - | - |
| 1788007941 | 22.22° C | 84% | 1017.4 hPa | - | - | - | - |
| 1788007341 | 22.22° C | 85% | 1017.4 hPa | - | - | - | - |
| 1788006741 | 22.22° C | 85% | 1017.5 hPa | - | - | - | - |
| 1788006141 | 22.22° C | 86% | 1017.6 hPa | - | - | - | - |
| 1788005541 | 21.67° C | 86% | 1017.7 hPa | - | - | - | - |
* Rain since midnight (hover to see other rain measurements)
** Current wind speed in m/s (hover to see current wind gust speed)